Time;durP1;ratioP1;P1;durP2;ratioP2;P2;SDS_P1;SDS_P2;PMS_P1;PMS_P2;Temp;Humidity;BMP_temperature;BMP_pressure;BME280_temperature;BME280_humidity;BME280_pressure;Samples;Min_cycle;Max_cycle;Signal;HPM_P1;HPM_P2
2023/01/02 00:01:43;;;;;;;6.63;3.80;;;;;;;14.66;43.94;99718.09;10395800;28;20241;-60
2023/01/02 00:06:45;;;;;;;9.87;3.77;;;;;;;15.02;43.08;99680.84;10404623;28;20228;-60
2023/01/02 00:11:47;;;;;;;8.47;3.60;;;;;;;16.09;42.14;99644.91;10404034;28;20290;-60
2023/01/02 00:16:48;;;;;;;6.90;3.70;;;;;;;15.88;42.25;99652.41;10407279;28;20240;-60
2023/01/02 00:21:50;;;;;;;5.83;3.43;;;;;;;13.73;43.88;99645.63;10405939;28;20232;-60
2023/01/02 00:26:52;;;;;;;4.63;3.00;;;;;;;16.13;41.40;99619.97;10405361;28;20228;-60
2023/01/02 00:31:53;;;;;;;8.43;3.77;;;;;;;15.30;41.85;99686.69;10403859;28;20232;-60
2023/01/02 00:36:55;;;;;;;4.43;3.17;;;;;;;16.02;41.20;99629.63;10406703;28;20240;-61
2023/01/02 00:41:56;;;;;;;7.63;3.60;;;;;;;15.30;41.59;99712.78;10402245;28;20756;-61
2023/01/02 00:46:58;;;;;;;7.97;3.70;;;;;;;13.82;42.73;99665.88;10400424;28;20232;-60
2023/01/02 00:52:00;;;;;;;7.77;3.97;;;;;;;14.51;43.09;99690.56;10407033;28;20588;-60
2023/01/02 00:57:02;;;;;;;7.47;3.57;;;;;;;13.38;44.51;99711.19;10402955;28;20716;-61
2023/01/02 01:02:04;;;;;;;8.33;3.40;;;;;;;14.91;43.36;99668.88;10405030;28;20317;-60
2023/01/02 01:07:05;;;;;;;7.47;3.67;;;;;;;14.62;44.00;99679.13;10401058;28;20235;-61
2023/01/02 01:12:07;;;;;;;6.97;4.13;;;;;;;14.39;44.09;99671.56;10404405;28;20923;-60
2023/01/02 01:17:09;;;;;;;8.20;5.07;;;;;;;13.28;45.23;99681.19;10404518;28;20228;-60
2023/01/02 01:22:11;;;;;;;8.73;4.90;;;;;;;13.01;45.91;99669.50;10405585;28;20248;-60
2023/01/02 01:27:12;;;;;;;7.67;4.17;;;;;;;13.25;45.27;99695.81;10398837;28;20347;-60
2023/01/02 01:32:14;;;;;;;5.90;3.70;;;;;;;14.11;44.32;99621.56;10400749;28;20243;-61
2023/01/02 01:37:16;;;;;;;8.23;4.10;;;;;;;13.41;44.17;99683.03;10403131;28;20259;-60
2023/01/02 01:42:18;;;;;;;6.63;4.07;;;;;;;13.67;42.74;99709.94;10398037;28;20236;-59
2023/01/02 01:47:48;;;;;;;5.37;3.40;;;;;;;14.47;42.44;99630.94;10401912;28;20228;-60
2023/01/02 01:52:55;;;;;;;4.67;3.10;;;;;;;13.01;43.79;99693.69;10397302;28;20265;-59
2023/01/02 01:58:04;;;;;;;8.70;3.30;;;;;;;15.44;41.58;99601.13;10403715;28;20225;-60
2023/01/02 02:03:10;;;;;;;9.13;3.80;;;;;;;14.25;42.38;99711.16;10398649;28;20366;-59
2023/01/02 02:08:20;;;;;;;5.37;3.40;;;;;;;14.65;42.33;99646.41;10405283;28;20236;-59
2023/01/02 02:13:22;;;;;;;8.37;3.80;;;;;;;15.36;41.30;99616.75;10399228;28;20332;-59
2023/01/02 02:18:48;;;;;;;6.30;3.37;;;;;;;14.09;42.19;99698.13;10405019;28;20232;-60
2023/01/02 02:24:28;;;;;;;7.30;2.83;;;;;;;14.89;41.92;99634.06;10395485;28;20236;-60
2023/01/02 02:30:01;;;;;;;6.03;3.20;;;;;;;15.09;41.41;99660.06;10332460;28;20237;-60
2023/01/02 02:35:42;;;;;;;8.03;2.93;;;;;;;14.97;41.49;99642.97;10393898;28;20291;-60
2023/01/02 02:40:56;;;;;;;5.63;3.13;;;;;;;15.14;40.81;99638.69;10398990;28;20240;-59
2023/01/02 02:46:11;;;;;;;7.67;3.70;;;;;;;15.84;40.40;99613.41;10400078;28;20231;-61
2023/01/02 02:51:44;;;;;;;5.67;3.10;;;;;;;15.54;40.26;99608.72;10400948;28;20734;-59
2023/01/02 02:56:49;;;;;;;6.17;3.77;;;;;;;15.67;40.56;99602.38;10403882;28;20911;-60
2023/01/02 03:01:50;;;;;;;5.43;3.13;;;;;;;15.93;40.47;99617.47;10399237;28;20300;-60
2023/01/02 03:07:38;;;;;;;7.20;3.40;;;;;;;14.53;42.00;99677.75;10399601;28;20731;-60
2023/01/02 03:12:49;;;;;;;3.60;2.43;;;;;;;15.18;41.10;99618.31;10399221;28;20235;-60
2023/01/02 03:18:07;;;;;;;7.10;3.20;;;;;;;15.62;40.52;99602.22;10374815;28;20230;-60
2023/01/02 03:23:18;;;;;;;5.90;3.30;;;;;;;13.93;41.68;99641.03;10362412;28;20726;-60
2023/01/02 03:28:25;;;;;;;6.37;3.30;;;;;;;15.87;40.82;99586.81;10356739;28;20632;-60
2023/01/02 03:33:31;;;;;;;3.13;2.80;;;;;;;15.25;40.80;99612.88;10357984;28;20317;-61
2023/01/02 03:38:39;;;;;;;4.20;3.00;;;;;;;15.25;41.21;99629.91;10390248;28;20232;-61
2023/01/02 03:43:44;;;;;;;6.63;2.80;;;;;;;15.10;41.30;99657.16;10396273;28;20278;-60
2023/01/02 03:48:59;;;;;;;6.63;3.27;;;;;;;15.27;41.19;99616.22;10361463;28;20238;-60
2023/01/02 03:54:03;;;;;;;6.23;3.20;;;;;;;15.82;39.96;99592.03;10363980;28;20243;-61
2023/01/02 03:59:14;;;;;;;7.50;2.90;;;;;;;15.72;40.60;99621.41;10369623;28;20612;-59
2023/01/02 04:04:44;;;;;;;3.80;2.40;;;;;;;15.20;40.89;99664.78;10362525;28;20236;-60
2023/01/02 04:09:53;;;;;;;5.13;2.73;;;;;;;15.64;40.10;99616.31;10361372;28;20240;-60
2023/01/02 04:14:58;;;;;;;5.70;3.27;;;;;;;16.00;40.14;99593.94;10370218;28;21048;-61
2023/01/02 04:20:04;;;;;;;4.27;3.37;;;;;;;15.51;40.60;99617.25;10358970;28;20245;-61
2023/01/02 04:25:12;;;;;;;9.80;3.43;;;;;;;16.02;39.96;99605.31;10357875;28;20241;-61
2023/01/02 04:30:14;;;;;;;7.07;2.83;;;;;;;15.99;40.09;99623.84;10365032;28;20310;-60
2023/01/02 04:35:20;;;;;;;5.13;2.90;;;;;;;15.24;40.71;99647.09;10361601;28;20650;-60
2023/01/02 04:40:23;;;;;;;6.00;3.30;;;;;;;15.88;39.78;99601.13;10369081;28;20236;-61
2023/01/02 04:45:26;;;;;;;7.70;3.00;;;;;;;14.74;41.22;99636.19;10409328;28;20286;-59
2023/01/02 04:50:28;;;;;;;5.37;3.23;;;;;;;15.64;40.09;99606.38;10397035;28;20320;-60
2023/01/02 04:55:56;;;;;;;4.77;2.47;;;;;;;16.03;39.50;99576.47;10407347;28;20256;-60
2023/01/02 05:01:22;;;;;;;4.80;2.83;;;;;;;15.26;39.12;99636.09;10403712;28;20224;-59
2023/01/02 05:06:48;;;;;;;5.53;2.97;;;;;;;15.69;39.45;99659.66;10405430;28;20236;-59
2023/01/02 05:12:13;;;;;;;4.60;2.83;;;;;;;16.12;38.86;99622.88;10402446;28;20773;-60
2023/01/02 05:17:41;;;;;;;9.13;2.70;;;;;;;13.73;40.63;99610.66;10400781;28;20252;-60
2023/01/02 05:28:54;;;;;;;4.87;3.17;;;;;;;15.15;40.54;99683.47;10407462;28;20236;-60
2023/01/02 05:34:20;;;;;;;10.87;5.30;;;;;;;14.51;41.00;99675.25;10399321;28;20738;-60
2023/01/02 05:39:46;;;;;;;5.20;3.33;;;;;;;16.03;39.52;99625.88;10401167;28;20247;-60
2023/01/02 05:45:11;;;;;;;5.40;3.40;;;;;;;15.20;41.05;99663.94;10406184;28;20244;-59
2023/01/02 05:50:37;;;;;;;9.97;4.30;;;;;;;14.63;41.49;99698.81;10405128;28;20231;-60
2023/01/02 05:56:09;;;;;;;8.13;4.53;;;;;;;14.68;41.42;99710.63;10404693;28;20515;-60
2023/01/02 06:01:35;;;;;;;3.67;3.00;;;;;;;14.55;41.07;99711.47;10404276;28;20456;-60
2023/01/02 06:07:01;;;;;;;7.30;3.60;;;;;;;14.06;41.43;99706.63;10403411;28;20967;-59
2023/01/02 06:12:27;;;;;;;6.90;3.33;;;;;;;13.31;42.90;99714.88;10404831;28;20785;-60
2023/01/02 06:17:52;;;;;;;8.87;3.93;;;;;;;13.11;43.63;99710.28;10403293;28;20325;-60
2023/01/02 06:23:18;;;;;;;11.07;6.00;;;;;;;14.35;42.39;99698.09;10404662;28;20232;-60
2023/01/02 06:28:45;;;;;;;16.80;9.73;;;;;;;14.54;41.39;99709.00;10402747;28;20228;-59
2023/01/02 06:34:11;;;;;;;15.83;10.57;;;;;;;14.91;40.54;99714.69;10402696;28;20347;-60
2023/01/02 06:39:37;;;;;;;11.53;5.43;;;;;;;14.78;40.88;99729.84;10407789;28;20236;-59
2023/01/02 06:45:04;;;;;;;10.80;7.43;;;;;;;15.11;40.73;99718.09;10400984;28;20267;-59
2023/01/02 06:50:30;;;;;;;8.50;4.00;;;;;;;14.40;40.99;99754.81;10402582;28;20236;-59
2023/01/02 06:55:57;;;;;;;7.50;4.17;;;;;;;14.84;40.61;99746.22;10398948;28;20852;-60
2023/01/02 07:01:23;;;;;;;14.63;6.33;;;;;;;15.04;40.70;99740.75;10403384;28;20726;-59
2023/01/02 07:06:49;;;;;;;9.90;6.00;;;;;;;15.57;39.85;99704.53;10401705;28;20524;-59
2023/01/02 07:12:15;;;;;;;7.60;4.70;;;;;;;15.21;40.03;99754.53;10397120;28;20229;-60
2023/01/02 07:17:41;;;;;;;6.90;3.93;;;;;;;14.87;40.31;99751.19;10401923;28;20231;-59
2023/01/02 07:23:07;;;;;;;8.70;3.90;;;;;;;14.17;41.13;99789.41;10408464;28;20788;-60
2023/01/02 07:28:34;;;;;;;7.03;4.40;;;;;;;13.87;40.93;99784.44;10407891;28;20258;-60
2023/01/02 07:34:01;;;;;;;7.27;3.30;;;;;;;14.29;41.05;99797.69;10403311;28;20224;-59
2023/01/02 07:39:26;;;;;;;7.13;3.93;;;;;;;14.52;40.76;99776.53;10372638;28;20225;-59
2023/01/02 07:44:52;;;;;;;8.67;4.43;;;;;;;15.26;39.76;99727.75;10403508;28;20339;-60
2023/01/02 07:50:18;;;;;;;3.63;2.60;;;;;;;15.05;39.80;99772.00;10406920;28;20667;-60
2023/01/02 07:55:52;;;;;;;5.73;2.87;;;;;;;14.40;40.24;99827.47;10399669;28;20323;-60
2023/01/02 08:02:07;;;;;;;5.37;2.70;;;;;;;14.73;40.04;99799.69;10379162;28;20228;-60
2023/01/02 08:08:23;;;;;;;4.33;3.00;;;;;;;14.96;39.62;99793.00;10412556;28;20301;-58
2023/01/02 08:14:39;;;;;;;5.67;3.40;;;;;;;14.94;39.44;99824.72;10405530;28;20216;-60
2023/01/02 08:20:56;;;;;;;6.33;3.20;;;;;;;15.03;39.05;99844.16;10400855;28;20252;-61
2023/01/02 08:27:12;;;;;;;4.97;3.03;;;;;;;14.85;38.81;99855.63;10397043;28;20236;-59
2023/01/02 08:33:27;;;;;;;5.93;3.33;;;;;;;14.84;39.50;99873.63;10397359;28;20887;-61
2023/01/02 08:39:43;;;;;;;4.87;3.10;;;;;;;14.47;40.38;99881.31;10398051;28;20299;-60
2023/01/02 08:45:59;;;;;;;7.03;3.97;;;;;;;14.99;39.62;99865.31;10357302;28;20319;-59
2023/01/02 08:52:15;;;;;;;7.67;2.73;;;;;;;15.01;38.98;99892.06;10355843;28;20311;-58
2023/01/02 08:58:30;;;;;;;7.10;3.60;;;;;;;15.05;39.38;99907.59;10356932;28;20789;-60
2023/01/02 09:04:45;;;;;;;5.10;3.23;;;;;;;15.18;39.77;99897.81;10355978;28;20232;-60
2023/01/02 09:11:00;;;;;;;7.83;3.30;;;;;;;14.86;39.74;99930.81;10357351;28;20237;-61
2023/01/02 09:17:16;;;;;;;6.97;3.10;;;;;;;16.37;38.73;99869.38;10356043;28;20225;-60
2023/01/02 09:23:32;;;;;;;7.60;3.90;;;;;;;16.35;38.15;99878.75;10361349;28;20229;-60
2023/01/02 09:29:48;;;;;;;5.00;2.60;;;;;;;15.08;39.49;99935.97;10358485;28;20234;-60
2023/01/02 09:36:04;;;;;;;9.57;3.77;;;;;;;15.80;38.97;99863.94;10364468;28;20555;-60
2023/01/02 09:42:20;;;;;;;7.63;2.90;;;;;;;15.87;38.87;99874.69;10383450;28;20729;-59
2023/01/02 09:48:36;;;;;;;5.00;3.20;;;;;;;16.72;37.61;99862.59;10374809;28;20233;-60
2023/01/02 09:54:52;;;;;;;9.43;3.50;;;;;;;15.47;38.86;99947.69;10399812;28;20327;-59
2023/01/02 10:01:07;;;;;;;4.73;3.03;;;;;;;16.18;38.28;99940.50;10399939;28;20228;-60
2023/01/02 10:07:23;;;;;;;6.13;2.60;;;;;;;16.59;38.62;99923.00;10383172;28;20261;-60
2023/01/02 10:13:40;;;;;;;7.40;3.57;;;;;;;16.45;38.94;99919.59;10358478;28;20632;-59
2023/01/02 10:19:56;;;;;;;8.27;4.23;;;;;;;16.33;38.50;99935.69;10356803;28;20236;-60
2023/01/02 10:26:11;;;;;;;7.97;3.83;;;;;;;16.07;39.08;99934.75;10364752;28;20276;-60
2023/01/02 10:32:28;;;;;;;6.73;2.80;;;;;;;15.65;39.42;99950.53;10359108;28;20702;-60
2023/01/02 10:38:44;;;;;;;5.33;3.13;;;;;;;16.05;38.98;99936.84;10363578;28;21014;-60
2023/01/02 10:44:59;;;;;;;11.87;3.57;;;;;;;17.39;38.34;99880.81;10353686;28;20784;-60
2023/01/02 10:51:15;;;;;;;13.03;3.63;;;;;;;16.48;39.24;99897.50;10365015;28;20718;-60
2023/01/02 10:57:30;;;;;;;7.27;3.33;;;;;;;17.22;38.52;99873.31;10395973;28;20232;-60
2023/01/02 19:07:02;;;;;;;4.70;3.73;;;;;;;10.65;54.97;100740.38;10556832;28;20221;-62
2023/01/02 19:17:33;;;;;;;4.93;4.20;;;;;;;11.76;53.02;100815.19;10556061;28;20813;-61
2023/01/02 19:22:36;;;;;;;6.00;4.80;;;;;;;11.16;52.23;100788.59;10570617;28;20228;-60
2023/01/02 19:27:38;;;;;;;6.30;4.70;;;;;;;10.70;54.33;100794.28;10560038;28;20321;-61
2023/01/02 19:32:40;;;;;;;4.10;3.70;;;;;;;10.87;53.99;100805.94;10575085;28;20732;-61
2023/01/02 19:37:44;;;;;;;3.40;3.10;;;;;;;11.50;52.28;100822.50;10570217;28;20245;-61
2023/01/02 19:42:50;;;;;;;3.37;3.07;;;;;;;11.92;51.36;100837.66;10562471;28;20241;-59
2023/01/02 19:47:52;;;;;;;3.60;3.30;;;;;;;10.18;54.94;100824.59;10553891;27;20245;-58
2023/01/02 19:52:54;;;;;;;4.43;4.03;;;;;;;11.23;52.08;100825.28;10555801;27;20237;-58
2023/01/02 19:57:56;;;;;;;3.90;3.50;;;;;;;11.37;51.85;100822.97;10563571;27;20229;-58
2023/01/02 20:02:57;;;;;;;4.20;3.27;;;;;;;10.05;55.01;100858.91;10558395;27;20867;-58
2023/01/02 20:08:01;;;;;;;3.40;3.10;;;;;;;10.15;54.88;100838.25;10563004;27;20300;-58
2023/01/02 20:13:02;;;;;;;3.87;3.30;;;;;;;11.41;52.26;100818.97;10560510;27;20236;-58
2023/01/02 20:18:04;;;;;;;5.30;3.73;;;;;;;11.17;52.53;100823.28;10557240;27;20254;-58
2023/01/02 20:23:09;;;;;;;3.93;3.50;;;;;;;10.30;54.03;100847.41;10562142;27;20229;-56
2023/01/02 20:28:11;;;;;;;3.93;3.13;;;;;;;11.71;51.15;100857.75;10558227;27;20305;-57
2023/01/02 20:33:13;;;;;;;3.97;3.60;;;;;;;11.02;52.59;100849.00;10563197;27;20221;-56
2023/01/02 20:38:14;;;;;;;4.17;3.50;;;;;;;11.21;52.17;100859.44;10562748;27;20253;-57
2023/01/02 20:43:16;;;;;;;4.43;3.33;;;;;;;10.55;52.62;100873.50;10556066;27;20256;-56
2023/01/02 20:48:18;;;;;;;3.73;3.37;;;;;;;11.09;51.89;100871.47;10559840;27;20229;-58
2023/01/02 20:53:20;;;;;;;3.70;3.40;;;;;;;10.63;52.15;100885.09;10553973;27;20278;-57
2023/01/02 20:58:22;;;;;;;4.67;3.57;;;;;;;10.67;52.37;100893.63;10556609;27;20237;-58
2023/01/02 21:03:24;;;;;;;2.90;2.70;;;;;;;11.35;51.15;100900.00;10561902;27;20268;-59
2023/01/02 21:08:26;;;;;;;3.47;3.17;;;;;;;11.11;51.37;100916.84;10554056;27;20795;-58
2023/01/02 21:13:28;;;;;;;3.03;2.83;;;;;;;12.02;49.91;100950.16;10559607;27;20756;-57
2023/01/02 21:18:33;;;;;;;3.60;3.30;;;;;;;12.07;49.52;100953.19;10553901;27;21017;-61
2023/01/02 21:23:36;;;;;;;3.83;2.87;;;;;;;10.15;52.97;100943.41;10553793;27;20818;-57
2023/01/02 21:28:39;;;;;;;3.53;3.23;;;;;;;11.88;50.00;100954.28;10553355;27;20226;-59
2023/01/02 21:33:41;;;;;;;3.53;3.23;;;;;;;11.56;50.59;100935.28;10552997;27;20235;-56
2023/01/02 21:38:42;;;;;;;3.40;3.10;;;;;;;11.15;50.83;100944.97;10549626;27;20408;-59
2023/01/02 21:43:44;;;;;;;2.63;2.43;;;;;;;10.79;51.59;100937.09;10545063;27;20722;-58
2023/01/02 21:48:46;;;;;;;3.07;2.87;;;;;;;11.22;51.14;100925.44;10581382;27;20248;-57
2023/01/02 21:53:50;;;;;;;2.93;2.73;;;;;;;12.00;49.65;100961.88;10487304;22;20230;-36
2023/01/02 21:58:53;;;;;;;3.30;2.20;;;;;;;11.63;49.75;100956.94;10439641;28;20254;-36
2023/01/02 22:03:56;;;;;;;2.70;2.50;;;;;;;12.15;49.35;100972.81;10441191;28;20220;-36
2023/01/02 22:08:58;;;;;;;3.20;2.20;;;;;;;11.30;50.26;100955.94;10445933;28;20244;-36
2023/01/02 22:13:59;;;;;;;2.57;2.37;;;;;;;9.34;54.19;100938.84;10439708;28;20620;-36
2023/01/02 22:19:01;;;;;;;2.67;2.47;;;;;;;9.66;54.86;100953.59;10443677;28;20398;-38
2023/01/02 22:24:03;;;;;;;2.53;2.33;;;;;;;9.03;54.72;100965.81;10441584;28;20855;-36
2023/01/02 22:29:06;;;;;;;2.30;2.20;;;;;;;7.28;59.67;100883.97;10438244;28;20285;-37
2023/01/02 22:34:09;;;;;;;2.03;1.93;;;;;;;8.88;56.73;100934.41;10441001;28;20227;-36
2023/01/02 22:39:12;;;;;;;2.20;2.10;;;;;;;9.30;55.37;100923.25;10443772;28;20254;-36
2023/01/02 22:44:30;;;;;;;2.50;2.40;;;;;;;10.89;51.91;100935.13;10437875;28;21088;-37
2023/01/02 22:49:34;;;;;;;2.30;2.07;;;;;;;11.31;50.56;100958.47;10442496;28;20235;-35
2023/01/02 22:54:37;;;;;;;2.30;2.20;;;;;;;11.77;48.77;100983.09;10439460;28;20236;-36
2023/01/02 22:59:40;;;;;;;3.40;3.10;;;;;;;11.88;49.49;100984.66;10444533;28;20636;-38
2023/01/02 23:04:42;;;;;;;3.97;3.43;;;;;;;12.63;47.72;101029.38;10433674;28;20236;-39
2023/01/02 23:09:44;;;;;;;3.23;2.90;;;;;;;12.66;47.57;101020.19;10437078;28;20628;-39
2023/01/02 23:14:46;;;;;;;3.13;2.23;;;;;;;11.40;49.05;100995.00;10439463;28;20244;-36
2023/01/02 23:19:48;;;;;;;3.27;2.50;;;;;;;10.08;51.68;101032.44;10441357;28;20245;-36
2023/01/02 23:24:49;;;;;;;2.20;2.10;;;;;;;8.49;55.60;100951.31;10443003;28;20265;-35
2023/01/02 23:29:51;;;;;;;2.50;2.37;;;;;;;10.39;52.15;100965.19;10446046;28;20240;-38
2023/01/02 23:34:53;;;;;;;2.43;2.10;;;;;;;11.50;49.97;100981.47;10447865;28;20289;-35
2023/01/02 23:39:55;;;;;;;2.50;2.30;;;;;;;9.53;53.03;101026.09;10452841;28;20235;-36
2023/01/02 23:44:56;;;;;;;2.50;2.30;;;;;;;8.76;55.46;101003.94;10439207;28;20243;-38
2023/01/02 23:49:58;;;;;;;2.50;2.30;;;;;;;10.29;52.86;100970.63;10453532;28;20243;-38
2023/01/02 23:55:00;;;;;;;2.37;2.13;;;;;;;9.25;54.12;101024.34;10439698;28;20274;-35
